createdAt,value
2018-02-17T00:02:10.674Z,50.30
2018-02-17T00:04:39.940Z,50.30
2018-02-17T00:07:08.309Z,50.30
2018-02-17T00:09:36.923Z,50.20
2018-02-17T00:12:05.950Z,50.20
2018-02-17T00:14:34.213Z,50.20
2018-02-17T00:17:02.574Z,50.30
2018-02-17T00:19:31.078Z,50.30
2018-02-17T00:21:59.378Z,50.50
2018-02-17T00:24:27.697Z,50.70
2018-02-17T00:26:56.079Z,50.90
2018-02-17T00:29:24.449Z,50.90
2018-02-17T00:31:52.760Z,51.00
2018-02-17T00:34:21.149Z,51.00
2018-02-17T00:36:50.192Z,51.70
2018-02-17T00:39:18.454Z,51.10
2018-02-17T00:41:47.188Z,51.10
2018-02-17T00:44:15.459Z,51.20
2018-02-17T00:46:43.732Z,51.20
2018-02-17T00:49:12.011Z,51.30
2018-02-17T00:51:40.292Z,51.40
2018-02-17T00:54:08.586Z,51.40
2018-02-17T00:56:36.863Z,51.50
2018-02-17T00:59:05.179Z,51.40
2018-02-17T01:01:33.449Z,51.40
2018-02-17T01:04:02.585Z,51.40
2018-02-17T01:06:34.713Z,51.50
2018-02-17T01:09:04.137Z,51.40
2018-02-17T01:11:32.419Z,51.50
2018-02-17T01:14:00.779Z,51.50
2018-02-17T01:16:29.088Z,51.60
2018-02-17T01:18:57.367Z,51.60
2018-02-17T01:21:25.664Z,51.70
2018-02-17T01:23:53.936Z,51.70
2018-02-17T01:26:22.989Z,51.90
2018-02-17T01:28:52.028Z,51.80
2018-02-17T01:31:20.327Z,51.90
2018-02-17T01:33:48.595Z,51.90
2018-02-17T01:36:17.292Z,52.00
2018-02-17T01:38:45.587Z,51.90
2018-02-17T01:41:13.856Z,51.90
2018-02-17T01:43:42.154Z,52.00
2018-02-17T01:46:11.202Z,51.90
2018-02-17T01:48:39.813Z,51.90
2018-02-17T01:51:08.092Z,52.10
2018-02-17T01:53:36.389Z,51.90
2018-02-17T01:56:04.669Z,51.80
2018-02-17T01:58:32.955Z,51.80
2018-02-17T02:01:02.090Z,51.80
2018-02-17T02:03:30.365Z,51.90
2018-02-17T02:05:58.646Z,52.00
2018-02-17T02:08:26.911Z,52.00
2018-02-17T02:10:55.494Z,52.10
2018-02-17T02:13:24.513Z,52.00
2018-02-17T02:15:52.782Z,52.00
2018-02-17T02:18:21.066Z,52.20
2018-02-17T02:20:49.334Z,52.20
2018-02-17T02:23:17.692Z,52.30
2018-02-17T02:25:46.402Z,52.30
2018-02-17T02:28:15.848Z,52.20
2018-02-17T02:30:44.186Z,52.50
2018-02-17T02:33:12.530Z,52.60
2018-02-17T02:35:41.586Z,52.50
2018-02-17T02:38:09.856Z,52.50
2018-02-17T02:40:38.503Z,52.50
2018-02-17T02:43:07.524Z,52.60
2018-02-17T02:45:36.014Z,52.60
2018-02-17T02:48:04.298Z,52.70
2018-02-17T02:50:33.569Z,52.50
2018-02-17T02:53:02.614Z,52.60
2018-02-17T02:55:31.327Z,52.60
2018-02-17T02:58:00.399Z,52.40
2018-02-17T03:00:28.726Z,52.50
2018-02-17T03:02:58.072Z,52.50
2018-02-17T03:05:26.352Z,52.60
2018-02-17T03:07:54.622Z,52.60
2018-02-17T03:10:24.623Z,52.60
2018-02-17T03:12:52.983Z,52.50
2018-02-17T03:15:21.331Z,52.60
2018-02-17T03:17:49.657Z,53.20
2018-02-17T03:20:18.110Z,52.60
2018-02-17T03:22:47.133Z,52.50
2018-02-17T03:25:15.420Z,52.50
2018-02-17T03:27:43.709Z,52.60
2018-02-17T03:30:12.293Z,52.60
2018-02-17T03:32:40.558Z,52.80
2018-02-17T03:35:08.930Z,52.80
2018-02-17T03:37:37.419Z,52.90
2018-02-17T03:40:05.673Z,52.90
2018-02-17T03:42:33.999Z,53.00
2018-02-17T03:45:04.215Z,52.90
2018-02-17T03:47:32.524Z,52.90
2018-02-17T03:50:01.550Z,52.90
2018-02-17T03:52:29.841Z,52.90
2018-02-17T03:54:58.520Z,52.90
2018-02-17T03:57:27.069Z,53.00
2018-02-17T03:59:56.445Z,53.10
2018-02-17T04:02:24.717Z,53.00
2018-02-17T04:04:53.032Z,53.00
2018-02-17T04:07:22.562Z,53.00
2018-02-17T04:09:50.975Z,53.00
2018-02-17T04:12:19.223Z,53.10
2018-02-17T04:14:47.497Z,53.00
2018-02-17T04:17:15.778Z,53.10
2018-02-17T04:19:45.127Z,53.10
2018-02-17T04:22:13.387Z,53.10
2018-02-17T04:24:42.349Z,53.10
2018-02-17T04:27:10.607Z,53.10
2018-02-17T04:29:39.637Z,53.20
2018-02-17T04:32:07.939Z,53.30
2018-02-17T04:34:36.825Z,53.20
2018-02-17T04:37:05.174Z,53.20
2018-02-17T04:39:45.323Z,53.20
2018-02-17T04:55:47.465Z,53.00
2018-02-17T04:58:23.277Z,53.10
2018-02-17T05:00:52.342Z,53.10
2018-02-17T05:03:27.915Z,53.20
2018-02-17T05:06:11.469Z,53.10
2018-02-17T05:08:43.130Z,53.30
2018-02-17T05:11:11.408Z,53.20
2018-02-17T05:13:39.788Z,53.20
2018-02-17T05:16:22.982Z,53.30
2018-02-17T05:18:55.851Z,53.40
2018-02-17T05:21:25.241Z,53.40
2018-02-17T05:23:57.677Z,53.50
2018-02-17T05:26:32.024Z,53.50
2018-02-17T05:29:04.163Z,53.60
2018-02-17T05:31:33.216Z,53.70
2018-02-17T05:34:05.364Z,53.50
2018-02-17T05:36:36.021Z,53.70
2018-02-17T05:39:05.363Z,53.70
2018-02-17T05:54:57.222Z,53.60
2018-02-17T05:57:25.506Z,53.60
2018-02-17T05:59:53.867Z,53.60
2018-02-17T06:02:22.197Z,53.70
2018-02-17T06:04:50.487Z,53.70
2018-02-17T06:07:19.194Z,53.60
2018-02-17T06:09:47.472Z,53.70
2018-02-17T06:12:16.527Z,53.80
2018-02-17T06:14:44.797Z,53.70
2018-02-17T06:17:13.404Z,53.80
2018-02-17T06:19:41.834Z,53.70
2018-02-17T06:22:10.339Z,53.90
2018-02-17T06:24:38.737Z,54.00
2018-02-17T06:27:08.392Z,53.80
2018-02-17T06:29:36.704Z,53.60
2018-02-17T06:32:05.066Z,53.90
2018-02-17T06:34:33.373Z,53.70
2018-02-17T06:37:01.663Z,54.40
2018-02-17T06:39:30.206Z,54.00
2018-02-17T06:41:59.416Z,53.90
2018-02-17T06:44:27.680Z,53.90
2018-02-17T06:46:56.371Z,53.90
2018-02-17T06:49:24.730Z,54.00
2018-02-17T06:51:53.781Z,53.90
2018-02-17T06:54:22.096Z,53.90
2018-02-17T06:56:50.955Z,53.90
2018-02-17T06:59:19.276Z,54.00
2018-02-17T07:01:48.378Z,53.90
2018-02-17T07:04:17.514Z,54.00
2018-02-17T07:06:45.921Z,54.00
2018-02-17T07:09:14.264Z,54.10
2018-02-17T07:11:42.550Z,54.10
2018-02-17T07:14:10.911Z,54.10
2018-02-17T07:16:39.262Z,54.30
2018-02-17T07:19:08.083Z,54.40
2018-02-17T07:21:36.371Z,54.60
2018-02-17T07:24:04.660Z,54.50
2018-02-17T07:26:33.067Z,54.70
2018-02-17T07:29:01.391Z,54.90
2018-02-17T07:31:31.424Z,54.80
2018-02-17T07:33:59.712Z,54.70
2018-02-17T07:36:28.396Z,54.90
2018-02-17T07:38:56.684Z,54.90
2018-02-17T07:41:25.011Z,55.00
2018-02-17T07:49:56.706Z,55.10
2018-02-17T07:52:25.307Z,55.10
2018-02-17T07:54:53.627Z,55.20
2018-02-17T07:57:22.692Z,55.10
2018-02-17T07:59:51.025Z,55.10
2018-02-17T08:02:19.417Z,55.10
2018-02-17T08:04:47.748Z,55.20
2018-02-17T08:07:16.041Z,55.20
2018-02-17T08:09:44.365Z,55.90
2018-02-17T08:12:12.626Z,55.30
2018-02-17T08:14:40.913Z,55.90
2018-02-17T08:17:10.018Z,55.20
2018-02-17T08:19:39.492Z,55.20
2018-02-17T08:22:07.796Z,55.20
2018-02-17T08:24:36.206Z,55.20
2018-02-17T08:27:04.496Z,55.20
2018-02-17T08:29:32.850Z,55.20
2018-02-17T08:32:01.222Z,55.10
2018-02-17T08:34:30.247Z,55.10
2018-02-17T08:36:58.749Z,55.20
2018-02-17T08:39:27.156Z,55.20
2018-02-17T08:41:55.425Z,55.20
2018-02-17T08:44:23.798Z,55.10
2018-02-17T08:46:53.055Z,55.20
2018-02-17T08:49:21.364Z,55.20
2018-02-17T08:51:49.732Z,55.10
2018-02-17T08:54:18.018Z,55.00
2018-02-17T08:56:46.293Z,55.00
2018-02-17T08:59:14.605Z,55.00
2018-02-17T09:01:42.905Z,55.00
2018-02-17T09:04:11.215Z,55.00
2018-02-17T09:06:39.481Z,55.10
2018-02-17T09:09:08.334Z,54.90
2018-02-17T09:11:36.630Z,54.90
2018-02-17T09:14:05.771Z,54.90
2018-02-17T09:16:34.666Z,55.00
2018-02-17T09:19:02.947Z,55.00
2018-02-17T09:21:31.259Z,55.00
2018-02-17T09:23:59.536Z,55.00
2018-02-17T09:26:27.842Z,54.80
2018-02-17T09:28:56.899Z,54.90
2018-02-17T09:31:25.193Z,54.90
2018-02-17T09:33:53.535Z,54.80
2018-02-17T09:36:22.248Z,54.90
2018-02-17T09:38:50.515Z,54.90
2018-02-17T09:41:18.859Z,54.90
2018-02-17T09:43:47.134Z,54.90
2018-02-17T09:46:15.489Z,54.80
2018-02-17T09:48:43.795Z,54.80
2018-02-17T09:51:12.070Z,54.90
2018-02-17T09:53:40.732Z,54.90
2018-02-17T09:56:09.750Z,54.60
2018-02-17T09:58:38.056Z,54.60
2018-02-17T10:01:06.389Z,54.30
2018-02-17T10:03:35.467Z,54.40
2018-02-17T10:06:03.769Z,54.40
2018-02-17T10:08:32.893Z,54.40
2018-02-17T10:11:01.297Z,54.40
2018-02-17T10:13:29.964Z,54.10
2018-02-17T10:15:59.725Z,54.50
2018-02-17T10:18:28.460Z,53.90
2018-02-17T10:20:56.970Z,53.70
2018-02-17T10:23:25.410Z,53.70
2018-02-17T10:25:54.018Z,53.90
2018-02-17T10:28:22.559Z,53.90
2018-02-17T10:30:51.139Z,54.00
2018-02-17T10:33:19.743Z,54.00
2018-02-17T10:35:48.391Z,53.80
2018-02-17T10:38:17.393Z,53.70
2018-02-17T10:40:45.724Z,53.70
2018-02-17T10:43:14.010Z,53.70
2018-02-17T10:45:42.312Z,53.50
2018-02-17T10:48:10.605Z,53.40
2018-02-17T10:50:38.929Z,53.40
2018-02-17T10:53:07.301Z,53.40
2018-02-17T10:55:37.390Z,53.30
2018-02-17T10:58:06.439Z,52.90
2018-02-17T11:00:36.017Z,52.90
2018-02-17T11:03:05.105Z,52.60
2018-02-17T11:05:34.602Z,52.60
2018-02-17T11:08:02.902Z,52.50
2018-02-17T11:10:31.189Z,52.30
2018-02-17T11:13:03.077Z,52.20
2018-02-17T11:15:31.366Z,52.20
2018-02-17T11:17:59.704Z,52.10
2018-02-17T11:20:28.002Z,52.30
2018-02-17T11:22:56.599Z,52.10
2018-02-17T11:25:24.938Z,51.90
2018-02-17T11:27:53.593Z,51.90
2018-02-17T11:30:21.909Z,51.70
2018-02-17T11:32:50.212Z,52.00
2018-02-17T11:35:19.897Z,51.50
2018-02-17T11:37:48.934Z,51.70
2018-02-17T11:40:17.245Z,51.60
2018-02-17T11:42:45.520Z,51.60
2018-02-17T11:45:14.938Z,51.30
2018-02-17T11:47:43.342Z,51.40
2018-02-17T11:50:11.626Z,51.30
2018-02-17T11:52:39.939Z,51.40
2018-02-17T11:55:08.210Z,51.10
2018-02-17T11:57:36.525Z,51.20
2018-02-17T12:00:05.582Z,51.00
2018-02-17T12:02:33.992Z,51.10
2018-02-17T12:05:03.082Z,50.70
2018-02-17T12:07:33.593Z,50.80
2018-02-17T12:10:01.946Z,50.50
2018-02-17T12:12:31.237Z,50.60
2018-02-17T12:15:00.358Z,50.50
2018-02-17T12:17:29.290Z,50.50
2018-02-17T12:19:58.483Z,50.20
2018-02-17T12:22:27.646Z,50.40
2018-02-17T12:24:55.963Z,50.30
2018-02-17T12:27:24.241Z,50.70
2018-02-17T12:29:52.572Z,49.90
2018-02-17T12:32:20.878Z,49.60
2018-02-17T12:34:49.189Z,49.60
2018-02-17T12:37:18.246Z,50.00
2018-02-17T12:39:47.603Z,49.90
2018-02-17T12:42:16.781Z,49.60
2018-02-17T12:44:45.098Z,49.60
2018-02-17T12:47:14.810Z,49.60
2018-02-17T12:49:43.163Z,49.40
2018-02-17T12:52:11.474Z,49.40
2018-02-17T12:54:39.746Z,49.80
2018-02-17T12:57:08.051Z,49.10
2018-02-17T12:59:36.415Z,48.90
2018-02-17T13:02:05.056Z,48.80
2018-02-17T13:04:34.097Z,48.50
2018-02-17T13:07:02.402Z,48.40
2018-02-17T13:09:30.695Z,48.20
2018-02-17T13:11:58.981Z,48.00
2018-02-17T13:14:27.300Z,47.90
2018-02-17T13:16:55.577Z,48.10
2018-02-17T13:19:24.611Z,47.90
2018-02-17T13:21:52.879Z,48.00
2018-02-17T13:24:21.152Z,47.80
2018-02-17T13:26:49.462Z,47.80
2018-02-17T13:29:18.522Z,47.60
2018-02-17T13:31:46.832Z,47.60
2018-02-17T13:34:16.202Z,47.70
2018-02-17T13:36:44.595Z,47.60
2018-02-17T13:39:12.859Z,47.50
2018-02-17T13:41:41.170Z,47.30
2018-02-17T13:44:10.345Z,47.00
2018-02-17T13:46:38.943Z,47.00
2018-02-17T13:49:07.234Z,46.60
2018-02-17T13:51:35.507Z,46.70
2018-02-17T13:54:03.812Z,46.60
2018-02-17T13:56:32.081Z,46.60
2018-02-17T13:59:01.165Z,46.60
2018-02-17T14:01:29.459Z,47.10
2018-02-17T14:03:58.525Z,46.20
2018-02-17T14:06:26.802Z,46.20
2018-02-17T14:08:56.211Z,46.10
2018-02-17T14:11:24.513Z,46.20
2018-02-17T14:13:53.662Z,45.90
2018-02-17T14:16:21.950Z,45.90
2018-02-17T14:18:50.232Z,46.00
2018-02-17T14:21:18.806Z,45.90
2018-02-17T14:23:47.106Z,45.90
2018-02-17T14:26:15.449Z,45.70
2018-02-17T14:28:43.747Z,45.60
2018-02-17T14:31:12.045Z,45.40
2018-02-17T14:33:40.371Z,45.50
2018-02-17T14:36:08.695Z,45.50
2018-02-17T14:38:37.253Z,45.30
2018-02-17T14:41:05.575Z,45.10
2018-02-17T14:43:34.622Z,45.20
2018-02-17T14:46:02.933Z,45.20
2018-02-17T14:48:31.243Z,44.90
2018-02-17T14:51:00.306Z,44.90
2018-02-17T14:53:28.620Z,44.90
2018-02-17T14:55:56.912Z,44.90
2018-02-17T14:58:25.218Z,44.90
2018-02-17T15:00:53.513Z,44.90
2018-02-17T15:03:21.782Z,44.90
2018-02-17T15:05:50.797Z,45.00
2018-02-17T15:08:19.070Z,44.90
2018-02-17T15:10:47.352Z,44.70
2018-02-17T15:13:15.650Z,44.40
2018-02-17T15:15:43.966Z,44.20
2018-02-17T15:18:13.032Z,44.30
2018-02-17T15:20:41.334Z,44.30
2018-02-17T15:23:09.620Z,44.40
2018-02-17T15:25:38.269Z,44.20
2018-02-17T15:28:06.951Z,44.30
2018-02-17T15:30:38.024Z,44.40
2018-02-17T15:33:07.810Z,44.50
2018-02-17T15:35:36.865Z,44.40
2018-02-17T15:38:05.529Z,44.30
2018-02-17T15:40:35.598Z,44.60
2018-02-17T15:43:03.994Z,44.50
2018-02-17T15:45:32.346Z,45.40
2018-02-17T15:48:00.648Z,44.60
2018-02-17T15:50:29.723Z,44.60
2018-02-17T15:52:58.061Z,44.60
2018-02-17T15:55:26.838Z,44.60
2018-02-17T15:57:55.193Z,44.70
2018-02-17T16:00:23.452Z,44.80
2018-02-17T16:02:51.769Z,44.80
2018-02-17T16:05:20.860Z,44.90
2018-02-17T16:07:49.258Z,44.90
2018-02-17T16:10:17.574Z,44.90
2018-02-17T16:12:45.972Z,45.00
2018-02-17T16:15:14.249Z,45.20
2018-02-17T16:17:42.572Z,45.20
2018-02-17T16:20:11.627Z,45.40
2018-02-17T16:22:40.956Z,45.40
2018-02-17T16:25:09.240Z,45.40
2018-02-17T16:27:37.572Z,45.50
2018-02-17T16:30:05.916Z,45.90
2018-02-17T16:32:34.218Z,46.00
2018-02-17T16:35:02.563Z,45.90
2018-02-17T16:37:31.756Z,46.60
2018-02-17T16:40:00.151Z,46.00
2018-02-17T16:42:28.696Z,45.90
2018-02-17T16:44:58.093Z,46.10
2018-02-17T16:47:27.157Z,46.20
2018-02-17T16:49:55.474Z,46.20
2018-02-17T16:52:24.561Z,46.10
2018-02-17T16:54:52.841Z,46.50
2018-02-17T16:57:21.966Z,46.40
2018-02-17T16:59:50.261Z,46.30
2018-02-17T17:02:19.008Z,46.40
2018-02-17T17:04:48.081Z,46.50
2018-02-17T17:07:16.340Z,46.50
2018-02-17T17:09:44.798Z,46.50
2018-02-17T17:12:13.095Z,46.50
2018-02-17T17:14:41.416Z,46.60
2018-02-17T17:17:10.471Z,46.70
2018-02-17T17:19:38.786Z,46.70
2018-02-17T17:22:07.854Z,46.80
2018-02-17T17:24:36.590Z,46.80
2018-02-17T17:27:04.938Z,46.80
2018-02-17T17:29:33.258Z,46.80
2018-02-17T17:32:01.580Z,46.80
2018-02-17T17:34:29.867Z,46.80
2018-02-17T17:36:59.105Z,46.90
2018-02-17T17:39:27.488Z,46.90
2018-02-17T17:41:55.873Z,47.00
2018-02-17T17:44:24.141Z,47.00
2018-02-17T17:46:52.797Z,47.10
2018-02-17T17:49:21.103Z,47.20
2018-02-17T17:51:50.154Z,47.30
2018-02-17T17:54:18.463Z,47.30
2018-02-17T17:56:47.567Z,47.40
2018-02-17T17:59:15.860Z,47.40
2018-02-17T18:01:44.181Z,47.40
2018-02-17T18:04:12.506Z,47.40
2018-02-17T18:06:41.595Z,47.50
2018-02-17T18:09:10.686Z,47.60
2018-02-17T18:11:39.018Z,47.60
2018-02-17T18:14:07.303Z,48.10
2018-02-17T18:16:35.639Z,47.70
2018-02-17T18:19:04.810Z,47.90
2018-02-17T18:21:33.117Z,47.90
2018-02-17T18:24:02.160Z,48.50
2018-02-17T18:26:30.903Z,48.00
2018-02-17T18:28:59.971Z,48.20
2018-02-17T18:31:28.242Z,48.10
2018-02-17T18:33:56.579Z,48.10
2018-02-17T18:36:24.904Z,48.10
2018-02-17T18:38:53.216Z,48.20
2018-02-17T18:41:21.534Z,48.20
2018-02-17T18:43:50.119Z,48.30
2018-02-17T18:46:18.409Z,48.30
2018-02-17T18:48:47.537Z,48.30
2018-02-17T18:51:15.865Z,48.30
2018-02-17T18:53:44.208Z,48.70
2018-02-17T18:56:13.604Z,48.50
2018-02-17T18:58:41.963Z,48.50
2018-02-17T19:01:10.274Z,48.60
2018-02-17T19:03:39.616Z,48.50
2018-02-17T19:06:07.889Z,48.60
2018-02-17T19:08:36.229Z,48.50
2018-02-17T19:11:04.522Z,48.50
2018-02-17T19:13:32.850Z,48.50
2018-02-17T19:16:01.134Z,48.50
2018-02-17T19:18:29.743Z,48.60
2018-02-17T19:20:59.052Z,48.50
2018-02-17T19:23:28.083Z,48.60
2018-02-17T19:25:56.497Z,48.50
2018-02-17T19:28:24.847Z,48.50
2018-02-17T19:30:53.170Z,48.50
2018-02-17T19:33:21.453Z,48.50
2018-02-17T19:35:50.534Z,48.50
2018-02-17T19:38:18.802Z,48.50
2018-02-17T19:40:47.415Z,48.50
2018-02-17T19:43:16.472Z,48.40
2018-02-17T19:45:44.822Z,48.40
2018-02-17T19:48:13.119Z,48.40
2018-02-17T19:50:41.450Z,48.40
2018-02-17T19:53:10.569Z,48.40
2018-02-17T19:55:39.626Z,48.40
2018-02-17T19:58:07.921Z,48.40
2018-02-17T20:00:36.237Z,48.40
2018-02-17T20:03:04.873Z,48.50
2018-02-17T20:05:33.957Z,48.40
2018-02-17T20:08:02.317Z,48.30
2018-02-17T20:10:30.862Z,48.30
2018-02-17T20:12:59.175Z,48.30
2018-02-17T20:15:28.274Z,48.30
2018-02-17T20:17:56.583Z,48.40
2018-02-17T20:20:24.902Z,48.30
2018-02-17T20:22:53.211Z,48.30
2018-02-17T20:25:21.803Z,48.30
2018-02-17T20:27:50.122Z,48.30
2018-02-17T20:30:19.212Z,48.20
2018-02-17T20:32:48.314Z,48.30
2018-02-17T20:35:17.376Z,48.30
2018-02-17T20:37:46.126Z,48.40
2018-02-17T20:40:14.459Z,48.40
2018-02-17T20:42:43.075Z,48.50
2018-02-17T20:45:11.413Z,48.50
2018-02-17T20:47:39.770Z,48.50
2018-02-17T20:50:08.091Z,48.50
2018-02-17T20:52:37.173Z,48.50
2018-02-17T20:55:06.567Z,48.50
2018-02-17T20:57:35.673Z,48.60
2018-02-17T21:00:04.077Z,48.60
2018-02-17T21:02:33.843Z,48.80
2018-02-17T21:05:02.515Z,48.60
2018-02-17T21:07:30.807Z,48.60
2018-02-17T21:09:59.098Z,48.60
2018-02-17T21:12:27.425Z,48.60
2018-02-17T21:14:55.766Z,48.60
2018-02-17T21:17:24.105Z,48.60
2018-02-17T21:19:52.395Z,48.60
2018-02-17T21:22:21.128Z,48.50
2018-02-17T21:24:49.406Z,48.50
2018-02-17T21:27:18.442Z,49.10
2018-02-17T21:29:46.760Z,48.60
2018-02-17T21:32:15.073Z,48.60
2018-02-17T21:34:44.142Z,48.60
2018-02-17T21:37:12.421Z,48.60
2018-02-17T21:39:40.731Z,49.40
2018-02-17T21:42:09.028Z,48.70
2018-02-17T21:44:40.440Z,48.80
2018-02-17T21:47:09.497Z,48.90
2018-02-17T21:49:37.806Z,48.80
2018-02-17T21:52:06.907Z,48.90
2018-02-17T21:54:35.962Z,49.00
2018-02-17T21:57:04.273Z,49.00
2018-02-17T21:59:32.561Z,49.20
2018-02-17T22:02:01.670Z,49.20
2018-02-17T22:04:30.714Z,49.20
2018-02-17T22:06:59.288Z,49.20
2018-02-17T22:09:27.602Z,49.20
2018-02-17T22:11:55.879Z,49.20
2018-02-17T22:14:24.203Z,49.20
2018-02-17T22:16:52.496Z,49.30
2018-02-17T22:19:21.045Z,49.40
2018-02-17T22:21:49.320Z,49.40
2018-02-17T22:24:18.352Z,49.40
2018-02-17T22:26:47.419Z,49.40
2018-02-17T22:29:16.470Z,49.40
2018-02-17T22:31:44.779Z,49.50
2018-02-17T22:34:13.056Z,49.50
2018-02-17T22:36:41.366Z,49.50
2018-02-17T22:39:09.643Z,49.50
2018-02-17T22:41:38.218Z,49.60
2018-02-17T22:44:07.246Z,49.70
2018-02-17T22:46:35.579Z,49.70
2018-02-17T22:49:03.868Z,49.80
2018-02-17T22:51:32.162Z,49.80
2018-02-17T22:54:00.478Z,49.80
2018-02-17T22:56:28.783Z,49.80
2018-02-17T22:58:57.085Z,50.00
2018-02-17T23:01:25.366Z,50.00
2018-02-17T23:03:53.702Z,50.10
2018-02-17T23:06:21.962Z,50.20
2018-02-17T23:08:50.568Z,50.20
2018-02-17T23:11:18.854Z,50.30
2018-02-17T23:13:47.150Z,50.40
2018-02-17T23:16:15.445Z,50.40
2018-02-17T23:18:43.728Z,50.50
2018-02-17T23:21:12.018Z,51.20
2018-02-17T23:23:40.320Z,50.60
2018-02-17T23:26:08.610Z,50.70
2018-02-17T23:28:36.940Z,50.70
2018-02-17T23:31:05.612Z,50.90
2018-02-17T23:33:34.730Z,51.00
2018-02-17T23:36:02.994Z,51.20
2018-02-17T23:38:31.305Z,51.00
2018-02-17T23:40:59.565Z,51.10
2018-02-17T23:43:27.895Z,51.10
2018-02-17T23:45:56.174Z,51.10
2018-02-17T23:48:24.473Z,51.30
2018-02-17T23:50:52.766Z,51.30
2018-02-17T23:53:21.520Z,51.30
2018-02-17T23:56:05.248Z,51.40
2018-02-17T23:58:33.833Z,51.50
